Time;durP1;ratioP1;P1;durP2;ratioP2;P2;SDS_P1;SDS_P2;PMS_P1;PMS_P2;Temp;Humidity;BMP_temperature;BMP_pressure;BME280_temperature;BME280_humidity;BME280_pressure;Samples;Min_cycle;Max_cycle;Signal;HPM_P1;HPM_P2
2020/12/29 00:01:23;;;;;;;6.3;3;;;;;;;5.78;69.93555;95926.8;;;;
2020/12/29 00:11:21;;;;;;;3.1;1.9;;;;;;;5.87;70.00586;95895.38;;;;
2020/12/29 00:21:22;;;;;;;4.9;2.5;;;;;;;5.75;70.35449;95883.95;;;;
2020/12/29 00:31:18;;;;;;;4.9;1.7;;;;;;;5.73;70.33887;95864.8;;;;
2020/12/29 00:41:17;;;;;;;5.2;2.6;;;;;;;5.77;70.3457;95849.63;;;;
2020/12/29 00:51:15;;;;;;;4.3;2.6;;;;;;;5.91;69.91113;95842.78;;;;
2020/12/29 01:01:13;;;;;;;3.8;2.3;;;;;;;6.19;68.89258;95817.86;;;;
2020/12/29 01:11:12;;;;;;;5.5;3.1;;;;;;;6.36;68.47266;95810.25;;;;
2020/12/29 01:21:10;;;;;;;4;1.8;;;;;;;6.63;67.25977;95805.88;;;;
2020/12/29 01:31:09;;;;;;;4;2;;;;;;;6.78;66.80078;95797.03;;;;
2020/12/29 01:41:07;;;;;;;3.2;1.9;;;;;;;6.81;66.64746;95804.36;;;;
2020/12/29 01:51:06;;;;;;;4.1;2.2;;;;;;;6.77;66.75488;95781.34;;;;
2020/12/29 02:01:04;;;;;;;2.9;2;;;;;;;6.68;66.99707;95767.37;;;;
2020/12/29 02:11:03;;;;;;;3.4;1.9;;;;;;;6.68;67.14453;95778.85;;;;
2020/12/29 02:21:01;;;;;;;4.3;2.3;;;;;;;6.53;67.88281;95768.95;;;;
2020/12/29 02:31:00;;;;;;;3.7;1.6;;;;;;;6.53;67.86035;95760.94;;;;
2020/12/29 02:40:58;;;;;;;3.5;1.7;;;;;;;6.58;67.73438;95748.08;;;;
2020/12/29 02:50:56;;;;;;;3.7;1.5;;;;;;;6.62;67.68457;95777.58;;;;
2020/12/29 03:00:55;;;;;;;2;1;;;;;;;6.74;69.59668;95773.98;;;;
2020/12/29 03:20:52;;;;;;;2;1;;;;;;;6.51;71.12891;95713.14;;;;
2020/12/29 03:30:50;;;;;;;5.7;4;;;;;;;6.35;71.37109;95703.63;;;;
2020/12/29 03:40:49;;;;;;;5.6;3.4;;;;;;;6.08;73.22559;95654.52;;;;
2020/12/29 03:50:47;;;;;;;3.1;1.3;;;;;;;5.83;74.26758;95651.27;;;;
2020/12/29 04:00:46;;;;;;;2.1;1.4;;;;;;;5.77;73.92285;95666.03;;;;
2020/12/29 04:10:44;;;;;;;1.7;0.7;;;;;;;5.97;72.72852;95670.33;;;;
2020/12/29 04:20:43;;;;;;;1.5;0.6;;;;;;;6.05;71.91504;95656;;;;
2020/12/29 04:30:41;;;;;;;1.4;0.8;;;;;;;6.1;71.55371;95646.94;;;;
2020/12/29 04:40:39;;;;;;;1.8;0.7;;;;;;;6.14;70.84375;95637.1;;;;
2020/12/29 04:50:40;;;;;;;2.1;1.1;;;;;;;6.16;70.66699;95671.49;;;;
2020/12/29 05:00:36;;;;;;;1.8;1.1;;;;;;;6.09;70.90137;95680.14;;;;
2020/12/29 05:10:35;;;;;;;2;0.9;;;;;;;6.04;71.24121;95715.93;;;;
2020/12/29 05:20:33;;;;;;;2.7;1.2;;;;;;;6.13;69.95801;95737.14;;;;
2020/12/29 05:30:31;;;;;;;3.5;1.4;;;;;;;6.21;69.91406;95740.76;;;;
2020/12/29 05:40:30;;;;;;;3.3;1.4;;;;;;;6.29;69.58105;95767.3;;;;
2020/12/29 05:50:28;;;;;;;3.2;1.3;;;;;;;6.29;70.91309;95777.99;;;;
2020/12/29 06:00:27;;;;;;;3.4;1.2;;;;;;;6.12;72.09277;95799.75;;;;
2020/12/29 06:10:27;;;;;;;2.6;1.5;;;;;;;6.27;70.14941;95822.27;;;;
2020/12/29 06:20:34;;;;;;;4.5;1.9;;;;;;;6.3;69.44824;95853.66;;;;
2020/12/29 06:30:22;;;;;;;4.6;2.4;;;;;;;6.26;68.88086;95882.21;;;;
2020/12/29 06:40:20;;;;;;;4.4;1.4;;;;;;;6.2;68.52539;95903.1;;;;
2020/12/29 06:50:19;;;;;;;1.4;0.5;;;;;;;6.21;69.08691;95947.45;;;;
2020/12/29 07:00:17;;;;;;;1.9;0.7;;;;;;;6.23;69.90527;96003.25;;;;
2020/12/29 07:10:15;;;;;;;4.4;1.3;;;;;;;6.16;69.22363;96056.55;;;;
2020/12/29 07:20:14;;;;;;;1.1;0.5;;;;;;;5.95;68.58691;96102.17;;;;
2020/12/29 07:30:12;;;;;;;2.7;1.2;;;;;;;5.71;70.02246;96136.92;;;;
2020/12/29 07:40:10;;;;;;;2.4;1;;;;;;;5.74;68.85547;96190.48;;;;
2020/12/29 07:50:09;;;;;;;2.2;0.7;;;;;;;5.98;68.01074;96225.25;;;;
2020/12/29 08:00:07;;;;;;;1.5;0.8;;;;;;;6.08;65.37109;96262.23;;;;
2020/12/29 08:10:05;;;;;;;3.2;1.3;;;;;;;6.29;65.05469;96298.77;;;;
2020/12/29 08:20:07;;;;;;;21.1;2.1;;;;;;;5.89;63.91895;96334.19;;;;
2020/12/29 08:30:02;;;;;;;2.1;0.9;;;;;;;5.8;62.69629;96370.09;;;;
2020/12/29 08:40:00;;;;;;;3.7;1.7;;;;;;;5.58;61.83594;96377.41;;;;
2020/12/29 08:49:59;;;;;;;3.3;1.5;;;;;;;5.45;61.69434;96381.11;;;;
2020/12/29 08:59:57;;;;;;;3.7;2.1;;;;;;;5.49;60.33301;96406.07;;;;
2020/12/29 09:09:55;;;;;;;3.5;1.4;;;;;;;5.64;60.25195;96442.09;;;;
2020/12/29 09:19:54;;;;;;;2.6;1.2;;;;;;;5.73;59.79199;96468.73;;;;
2020/12/29 09:29:52;;;;;;;3.3;1.5;;;;;;;5.83;58.54004;96519.89;;;;
2020/12/29 09:39:50;;;;;;;1.9;1.1;;;;;;;5.95;57.77246;96514.65;;;;
2020/12/29 09:49:48;;;;;;;2.5;1.5;;;;;;;6.16;57.68652;96545.92;;;;
2020/12/29 09:59:47;;;;;;;3.4;1.7;;;;;;;6.4;54.59375;96552.16;;;;
2020/12/29 10:09:45;;;;;;;4;1.3;;;;;;;6.65;53.60059;96574.41;;;;
2020/12/29 10:19:43;;;;;;;4.9;2.6;;;;;;;6.97;52.17578;96603.05;;;;
2020/12/29 10:29:42;;;;;;;3;1.2;;;;;;;7.26;51.60156;96612.78;;;;
2020/12/29 10:39:40;;;;;;;4.2;2.2;;;;;;;7.5;50.6709;96626.19;;;;
2020/12/29 10:49:39;;;;;;;3.6;2.1;;;;;;;7.89;50.53516;96621.25;;;;
2020/12/29 10:59:40;;;;;;;5.4;2.3;;;;;;;8.1;49.28223;96625.36;;;;
2020/12/29 11:09:40;;;;;;;7.4;2.8;;;;;;;8.37;48.45215;96636.48;;;;
2020/12/29 11:19:35;;;;;;;4;2.3;;;;;;;8.48;48.47559;96637.58;;;;
2020/12/29 11:29:33;;;;;;;3.1;1.4;;;;;;;8.44;48.20996;96660.84;;;;
2020/12/29 11:39:32;;;;;;;10.2;5;;;;;;;8.61;47.46973;96684.73;;;;
2020/12/29 11:49:31;;;;;;;4.7;1.5;;;;;;;8.52;46.76953;96689.47;;;;
2020/12/29 11:59:29;;;;;;;1.9;1.1;;;;;;;8.3;49.57617;96722.95;;;;
2020/12/29 12:09:28;;;;;;;4.9;2.3;;;;;;;8.79;46.58398;96715.56;;;;
2020/12/29 12:19:27;;;;;;;2.2;1.2;;;;;;;9.15;46.03125;96735.36;;;;
2020/12/29 12:29:27;;;;;;;1.7;0.9;;;;;;;9.29;44.99121;96736.53;;;;
2020/12/29 12:39:26;;;;;;;4.6;1.7;;;;;;;9.09;46.62793;96724.84;;;;
2020/12/29 12:49:23;;;;;;;3.8;1.3;;;;;;;9.03;48.1748;96752.3;;;;
2020/12/29 12:59:22;;;;;;;6.4;2.9;;;;;;;8.89;48.28418;96774.18;;;;
2020/12/29 13:09:20;;;;;;;4.9;2.2;;;;;;;8.68;46.12988;96776.23;;;;
2020/12/29 13:19:19;;;;;;;3;1.3;;;;;;;8.17;46.40332;96801.09;;;;
2020/12/29 13:29:18;;;;;;;3.8;1.9;;;;;;;7.53;49.19434;96823.12;;;;
2020/12/29 13:39:16;;;;;;;2.8;1.5;;;;;;;7.14;51.27051;96853.08;;;;
2020/12/29 13:49:15;;;;;;;2.1;0.9;;;;;;;6.92;51.98926;96860.33;;;;
2020/12/29 13:59:13;;;;;;;1.9;0.9;;;;;;;6.63;52.72949;96878.31;;;;
2020/12/29 14:09:12;;;;;;;3.8;1.7;;;;;;;6.54;53.14648;96891.73;;;;
2020/12/29 14:19:10;;;;;;;3.7;1.9;;;;;;;6.34;53.4043;96903.16;;;;
2020/12/29 14:29:08;;;;;;;5.7;2.5;;;;;;;5.88;54.3252;96939.45;;;;
2020/12/29 14:39:07;;;;;;;6;3.6;;;;;;;5.61;54.75195;96961.15;;;;
2020/12/29 14:49:05;;;;;;;12.8;8.5;;;;;;;5.29;56.23633;96959.71;;;;
2020/12/29 14:59:03;;;;;;;32.4;24.4;;;;;;;4.8;57.85156;96965.41;;;;
2020/12/29 15:09:01;;;;;;;10.9;7.7;;;;;;;4.39;59.27246;96952.39;;;;
2020/12/29 15:18:59;;;;;;;16.3;11.4;;;;;;;4.1;60.95215;96941.41;;;;
2020/12/29 15:28:57;;;;;;;12;7.6;;;;;;;3.88;61.24609;96953.7;;;;
2020/12/29 15:38:58;;;;;;;10.9;6.2;;;;;;;3.68;62.36621;96959.48;;;;
2020/12/29 15:48:53;;;;;;;14.8;9.8;;;;;;;3.55;63.76172;96965.66;;;;
2020/12/29 15:58:51;;;;;;;17.2;6.7;;;;;;;3.7;65.16602;96983.97;;;;
2020/12/29 16:08:49;;;;;;;8.3;4.9;;;;;;;3.54;64.39551;97001.37;;;;
2020/12/29 16:18:47;;;;;;;29.6;23.7;;;;;;;3.65;64.52344;97025.91;;;;
2020/12/29 16:28:45;;;;;;;6.6;4.9;;;;;;;3.84;64.51758;97037.2;;;;
2020/12/29 16:38:43;;;;;;;9.5;5;;;;;;;4.16;64.24219;97068.19;;;;
2020/12/29 16:48:41;;;;;;;16.1;10.7;;;;;;;4.03;64.35742;97072.45;;;;
2020/12/29 16:58:40;;;;;;;19.6;11.6;;;;;;;4.36;63.89355;97068.48;;;;
2020/12/29 17:08:38;;;;;;;15.9;9.3;;;;;;;4.41;64.08984;97095.02;;;;
2020/12/29 17:18:36;;;;;;;14.8;8.1;;;;;;;4.35;64.41699;97114.91;;;;
2020/12/29 17:28:34;;;;;;;9;5.9;;;;;;;4.29;65.25586;97124.12;;;;
2020/12/29 17:38:32;;;;;;;13;8.6;;;;;;;4.77;65.69727;97129.62;;;;
2020/12/29 17:48:31;;;;;;;9.3;6;;;;;;;5.15;64.68164;97147.87;;;;
2020/12/29 17:58:29;;;;;;;5.6;3.4;;;;;;;6.12;61.91113;97168.16;;;;
2020/12/29 18:08:27;;;;;;;4.9;3;;;;;;;6.4;61.18945;97188.17;;;;
2020/12/29 18:18:27;;;;;;;8.4;4.2;;;;;;;6.24;62.10938;97203.12;;;;
2020/12/29 18:28:24;;;;;;;4.9;2.8;;;;;;;6.35;62.38379;97226.56;;;;
2020/12/29 18:38:22;;;;;;;8.2;3.6;;;;;;;6.2;62.71973;97247.64;;;;
2020/12/29 18:48:20;;;;;;;10;7.3;;;;;;;5.95;62.82031;97279.34;;;;
2020/12/29 18:58:19;;;;;;;16.2;8.5;;;;;;;5.38;64.19043;97283.73;;;;
2020/12/29 19:08:17;;;;;;;9.6;5.2;;;;;;;5.04;65.34766;97296.86;;;;
2020/12/29 19:18:15;;;;;;;9.2;5.9;;;;;;;4.78;66.7041;97307.34;;;;
2020/12/29 19:28:14;;;;;;;9.8;6.5;;;;;;;5.35;67.53027;97342.33;;;;
2020/12/29 19:38:12;;;;;;;4;2.4;;;;;;;5.56;66.66797;97335.41;;;;
2020/12/29 19:48:10;;;;;;;18.6;13.2;;;;;;;5.51;66.94043;97352.38;;;;
2020/12/29 19:58:08;;;;;;;6.7;3.4;;;;;;;5.76;66.87891;97374.98;;;;
2020/12/29 20:08:07;;;;;;;20.4;10.3;;;;;;;5.68;67.33594;97378.41;;;;
2020/12/29 20:18:05;;;;;;;14.1;9.7;;;;;;;5.81;67.61328;97382.09;;;;
2020/12/29 20:28:03;;;;;;;17;11.3;;;;;;;5.63;67.99707;97383.08;;;;
2020/12/29 20:38:04;;;;;;;10.7;5.7;;;;;;;5.62;68.88086;97379.64;;;;
2020/12/29 20:48:01;;;;;;;6.7;2.8;;;;;;;5.73;69.23145;97366.78;;;;
2020/12/29 20:57:58;;;;;;;5.1;2.4;;;;;;;5.83;68.52246;97359.3;;;;
2020/12/29 21:07:56;;;;;;;6.1;2.8;;;;;;;5.86;68.95313;97374.78;;;;
2020/12/29 21:17:55;;;;;;;6.7;4;;;;;;;5.89;68.43164;97389.42;;;;
2020/12/29 21:27:55;;;;;;;5.2;1.7;;;;;;;5.94;68.99805;97386.59;;;;
2020/12/29 21:37:51;;;;;;;3.1;1.4;;;;;;;6.45;67.48926;97378.03;;;;
2020/12/29 21:47:50;;;;;;;2.9;1.3;;;;;;;6.58;67.95898;97388.63;;;;
2020/12/29 21:57:48;;;;;;;2.9;1.4;;;;;;;6.48;68.65918;97394.27;;;;
2020/12/29 22:07:46;;;;;;;3;0.8;;;;;;;6.73;67.93652;97398.13;;;;
2020/12/29 22:17:45;;;;;;;2.2;0.9;;;;;;;6.83;68.00781;97413.9;;;;
2020/12/29 22:27:43;;;;;;;2.8;1.3;;;;;;;6.85;68.18066;97416.25;;;;
2020/12/29 22:37:42;;;;;;;3.1;1.1;;;;;;;6.79;68.55176;97433.56;;;;
2020/12/29 22:47:40;;;;;;;5.9;2.2;;;;;;;6.74;70.88574;97388.17;;;;
2020/12/29 22:57:39;;;;;;;6.9;3.3;;;;;;;6.51;71.55273;97390.17;;;;
2020/12/29 23:07:41;;;;;;;7.5;3.1;;;;;;;6.26;72.83105;97414.93;;;;
2020/12/29 23:17:36;;;;;;;4.7;2.6;;;;;;;6.15;72.29883;97406.38;;;;
2020/12/29 23:27:34;;;;;;;5.5;2.8;;;;;;;5.84;73.75684;97395.64;;;;
2020/12/29 23:37:35;;;;;;;12.8;10.4;;;;;;;5.56;73.70801;97370.14;;;;
2020/12/29 23:47:31;;;;;;;14.3;10.5;;;;;;;5.33;73.98047;97379.26;;;;
2020/12/29 23:57:29;;;;;;;14.5;7.8;;;;;;;4.91;73.42969;97391.94;;;;
